sensor_id;sensor_type;location;lat;lon;timestamp;P1;durP1;ratioP1;P2;durP2;ratioP2
13291;SDS011;6714;53.056;8.690;2023-01-08T00:00:34;3.47;;;3.17;;
13291;SDS011;6714;53.056;8.690;2023-01-08T00:03:16;3.57;;;3.27;;
13291;SDS011;6714;53.056;8.690;2023-01-08T00:05:59;3.57;;;3.27;;
13291;SDS011;6714;53.056;8.690;2023-01-08T00:08:42;3.40;;;3.10;;
13291;SDS011;6714;53.056;8.690;2023-01-08T00:11:24;3.53;;;3.30;;
13291;SDS011;6714;53.056;8.690;2023-01-08T00:14:08;3.40;;;3.20;;
13291;SDS011;6714;53.056;8.690;2023-01-08T00:16:50;3.00;;;2.80;;
13291;SDS011;6714;53.056;8.690;2023-01-08T00:19:32;3.63;;;3.33;;
13291;SDS011;6714;53.056;8.690;2023-01-08T00:22:14;3.73;;;3.43;;
13291;SDS011;6714;53.056;8.690;2023-01-08T00:24:57;3.50;;;3.20;;
13291;SDS011;6714;53.056;8.690;2023-01-08T00:27:39;3.57;;;3.27;;
13291;SDS011;6714;53.056;8.690;2023-01-08T00:30:22;3.80;;;3.50;;
13291;SDS011;6714;53.056;8.690;2023-01-08T00:33:05;3.80;;;3.50;;
13291;SDS011;6714;53.056;8.690;2023-01-08T00:35:47;3.30;;;3.00;;
13291;SDS011;6714;53.056;8.690;2023-01-08T00:38:29;3.70;;;3.40;;
13291;SDS011;6714;53.056;8.690;2023-01-08T00:41:12;3.23;;;2.97;;
13291;SDS011;6714;53.056;8.690;2023-01-08T00:43:55;3.97;;;3.50;;
13291;SDS011;6714;53.056;8.690;2023-01-08T00:46:38;3.77;;;3.47;;
13291;SDS011;6714;53.056;8.690;2023-01-08T00:49:20;3.97;;;3.67;;
13291;SDS011;6714;53.056;8.690;2023-01-08T00:52:03;3.97;;;3.60;;
13291;SDS011;6714;53.056;8.690;2023-01-08T00:54:45;3.57;;;3.27;;
13291;SDS011;6714;53.056;8.690;2023-01-08T00:57:31;3.70;;;3.40;;
13291;SDS011;6714;53.056;8.690;2023-01-08T01:00:14;3.80;;;3.50;;
13291;SDS011;6714;53.056;8.690;2023-01-08T01:02:57;4.27;;;3.33;;
13291;SDS011;6714;53.056;8.690;2023-01-08T01:05:40;4.20;;;3.80;;
13291;SDS011;6714;53.056;8.690;2023-01-08T01:08:22;3.73;;;3.43;;
13291;SDS011;6714;53.056;8.690;2023-01-08T01:11:07;4.03;;;3.63;;
13291;SDS011;6714;53.056;8.690;2023-01-08T01:13:50;3.57;;;3.27;;
13291;SDS011;6714;53.056;8.690;2023-01-08T01:16:32;3.53;;;3.23;;
13291;SDS011;6714;53.056;8.690;2023-01-08T01:19:16;4.13;;;3.73;;
13291;SDS011;6714;53.056;8.690;2023-01-08T01:21:59;3.27;;;3.07;;
13291;SDS011;6714;53.056;8.690;2023-01-08T01:24:41;5.13;;;3.63;;
13291;SDS011;6714;53.056;8.690;2023-01-08T01:27:23;4.40;;;3.60;;
13291;SDS011;6714;53.056;8.690;2023-01-08T01:30:06;3.70;;;3.40;;
13291;SDS011;6714;53.056;8.690;2023-01-08T01:32:48;3.70;;;3.40;;
13291;SDS011;6714;53.056;8.690;2023-01-08T01:35:32;3.73;;;3.23;;
13291;SDS011;6714;53.056;8.690;2023-01-08T01:38:14;3.60;;;3.30;;
13291;SDS011;6714;53.056;8.690;2023-01-08T01:40:56;3.83;;;3.53;;
13291;SDS011;6714;53.056;8.690;2023-01-08T01:43:40;3.37;;;3.10;;
13291;SDS011;6714;53.056;8.690;2023-01-08T01:46:24;4.20;;;3.80;;
13291;SDS011;6714;53.056;8.690;2023-01-08T01:49:09;3.50;;;3.20;;
13291;SDS011;6714;53.056;8.690;2023-01-08T01:51:53;4.50;;;3.57;;
13291;SDS011;6714;53.056;8.690;2023-01-08T01:54:36;3.60;;;3.30;;
13291;SDS011;6714;53.056;8.690;2023-01-08T01:57:19;3.97;;;3.67;;
13291;SDS011;6714;53.056;8.690;2023-01-08T02:00:02;3.20;;;2.90;;
13291;SDS011;6714;53.056;8.690;2023-01-08T02:02:45;3.77;;;3.47;;
13291;SDS011;6714;53.056;8.690;2023-01-08T02:05:29;3.77;;;3.40;;
13291;SDS011;6714;53.056;8.690;2023-01-08T02:08:16;3.73;;;3.43;;
13291;SDS011;6714;53.056;8.690;2023-01-08T02:11:04;3.80;;;3.50;;
13291;SDS011;6714;53.056;8.690;2023-01-08T02:13:49;3.50;;;3.20;;
13291;SDS011;6714;53.056;8.690;2023-01-08T02:16:33;3.60;;;3.30;;
13291;SDS011;6714;53.056;8.690;2023-01-08T02:19:21;3.33;;;3.10;;
13291;SDS011;6714;53.056;8.690;2023-01-08T02:22:10;3.70;;;3.40;;
13291;SDS011;6714;53.056;8.690;2023-01-08T02:24:59;3.23;;;3.03;;
13291;SDS011;6714;53.056;8.690;2023-01-08T02:27:44;3.73;;;3.00;;
13291;SDS011;6714;53.056;8.690;2023-01-08T02:30:29;3.40;;;3.20;;
13291;SDS011;6714;53.056;8.690;2023-01-08T02:33:12;3.90;;;3.50;;
13291;SDS011;6714;53.056;8.690;2023-01-08T02:36:09;3.77;;;3.47;;
13291;SDS011;6714;53.056;8.690;2023-01-08T02:38:55;3.43;;;3.20;;
13291;SDS011;6714;53.056;8.690;2023-01-08T02:41:47;3.43;;;3.13;;
13291;SDS011;6714;53.056;8.690;2023-01-08T02:44:34;3.27;;;3.07;;
13291;SDS011;6714;53.056;8.690;2023-01-08T02:47:22;3.50;;;3.20;;
13291;SDS011;6714;53.056;8.690;2023-01-08T02:50:07;2.93;;;2.70;;
13291;SDS011;6714;53.056;8.690;2023-01-08T02:52:54;3.30;;;3.10;;
13291;SDS011;6714;53.056;8.690;2023-01-08T02:55:37;3.70;;;3.37;;
13291;SDS011;6714;53.056;8.690;2023-01-08T02:58:20;3.80;;;3.07;;
13291;SDS011;6714;53.056;8.690;2023-01-08T03:01:05;3.67;;;3.10;;
13291;SDS011;6714;53.056;8.690;2023-01-08T03:03:49;3.37;;;3.17;;
13291;SDS011;6714;53.056;8.690;2023-01-08T03:06:33;3.67;;;3.37;;
13291;SDS011;6714;53.056;8.690;2023-01-08T03:09:15;3.37;;;3.10;;
13291;SDS011;6714;53.056;8.690;2023-01-08T03:11:59;3.37;;;3.13;;
13291;SDS011;6714;53.056;8.690;2023-01-08T03:14:43;3.47;;;3.17;;
13291;SDS011;6714;53.056;8.690;2023-01-08T03:17:29;3.83;;;3.53;;
13291;SDS011;6714;53.056;8.690;2023-01-08T03:20:12;4.27;;;3.50;;
13291;SDS011;6714;53.056;8.690;2023-01-08T03:22:56;3.10;;;2.80;;
13291;SDS011;6714;53.056;8.690;2023-01-08T03:25:40;3.17;;;2.97;;
13291;SDS011;6714;53.056;8.690;2023-01-08T03:28:23;3.60;;;3.30;;
13291;SDS011;6714;53.056;8.690;2023-01-08T03:31:09;3.57;;;3.10;;
13291;SDS011;6714;53.056;8.690;2023-01-08T03:33:53;3.57;;;3.13;;
13291;SDS011;6714;53.056;8.690;2023-01-08T03:36:36;3.30;;;3.10;;
13291;SDS011;6714;53.056;8.690;2023-01-08T03:39:20;3.97;;;3.67;;
13291;SDS011;6714;53.056;8.690;2023-01-08T03:42:06;3.57;;;3.27;;
13291;SDS011;6714;53.056;8.690;2023-01-08T03:44:49;4.03;;;3.13;;
13291;SDS011;6714;53.056;8.690;2023-01-08T03:47:32;3.77;;;3.47;;
13291;SDS011;6714;53.056;8.690;2023-01-08T03:50:18;3.10;;;2.90;;
13291;SDS011;6714;53.056;8.690;2023-01-08T03:53:02;3.87;;;3.57;;
13291;SDS011;6714;53.056;8.690;2023-01-08T03:55:44;3.43;;;3.10;;
13291;SDS011;6714;53.056;8.690;2023-01-08T03:58:26;3.60;;;3.30;;
13291;SDS011;6714;53.056;8.690;2023-01-08T04:01:08;3.70;;;3.40;;
13291;SDS011;6714;53.056;8.690;2023-01-08T04:03:50;3.10;;;2.90;;
13291;SDS011;6714;53.056;8.690;2023-01-08T04:06:34;3.80;;;3.50;;
13291;SDS011;6714;53.056;8.690;2023-01-08T04:09:16;3.67;;;3.37;;
13291;SDS011;6714;53.056;8.690;2023-01-08T04:11:58;3.57;;;3.27;;
13291;SDS011;6714;53.056;8.690;2023-01-08T04:14:40;3.50;;;3.20;;
13291;SDS011;6714;53.056;8.690;2023-01-08T04:17:23;2.93;;;2.73;;
13291;SDS011;6714;53.056;8.690;2023-01-08T04:20:05;3.30;;;3.10;;
13291;SDS011;6714;53.056;8.690;2023-01-08T04:22:49;3.43;;;3.13;;
13291;SDS011;6714;53.056;8.690;2023-01-08T04:25:31;3.40;;;3.10;;
13291;SDS011;6714;53.056;8.690;2023-01-08T04:28:13;3.00;;;2.80;;
13291;SDS011;6714;53.056;8.690;2023-01-08T04:30:55;3.43;;;3.00;;
13291;SDS011;6714;53.056;8.690;2023-01-08T04:33:38;3.50;;;3.20;;
13291;SDS011;6714;53.056;8.690;2023-01-08T04:36:20;4.03;;;3.33;;
13291;SDS011;6714;53.056;8.690;2023-01-08T04:39:04;2.90;;;2.70;;
13291;SDS011;6714;53.056;8.690;2023-01-08T04:41:46;3.00;;;2.80;;
13291;SDS011;6714;53.056;8.690;2023-01-08T04:44:28;3.60;;;3.00;;
13291;SDS011;6714;53.056;8.690;2023-01-08T04:47:10;3.33;;;3.00;;
13291;SDS011;6714;53.056;8.690;2023-01-08T04:49:52;3.27;;;2.97;;
13291;SDS011;6714;53.056;8.690;2023-01-08T04:52:35;2.97;;;2.77;;
13291;SDS011;6714;53.056;8.690;2023-01-08T04:55:19;3.77;;;2.83;;
13291;SDS011;6714;53.056;8.690;2023-01-08T04:58:01;3.47;;;3.23;;
13291;SDS011;6714;53.056;8.690;2023-01-08T05:00:43;4.17;;;3.57;;
13291;SDS011;6714;53.056;8.690;2023-01-08T05:03:25;3.37;;;3.07;;
13291;SDS011;6714;53.056;8.690;2023-01-08T05:06:08;2.87;;;2.67;;
13291;SDS011;6714;53.056;8.690;2023-01-08T05:08:50;3.30;;;3.10;;
13291;SDS011;6714;53.056;8.690;2023-01-08T05:11:33;3.37;;;2.97;;
13291;SDS011;6714;53.056;8.690;2023-01-08T05:14:16;3.33;;;3.13;;
13291;SDS011;6714;53.056;8.690;2023-01-08T05:16:58;4.37;;;3.20;;
13291;SDS011;6714;53.056;8.690;2023-01-08T05:19:40;3.50;;;3.30;;
13291;SDS011;6714;53.056;8.690;2023-01-08T05:22:22;2.90;;;2.70;;
13291;SDS011;6714;53.056;8.690;2023-01-08T05:25:05;3.43;;;3.10;;
13291;SDS011;6714;53.056;8.690;2023-01-08T05:27:48;3.10;;;2.90;;
13291;SDS011;6714;53.056;8.690;2023-01-08T05:30:30;5.33;;;3.27;;
13291;SDS011;6714;53.056;8.690;2023-01-08T05:33:13;3.13;;;2.90;;
13291;SDS011;6714;53.056;8.690;2023-01-08T05:35:55;3.23;;;3.03;;
13291;SDS011;6714;53.056;8.690;2023-01-08T05:38:37;3.40;;;3.03;;
13291;SDS011;6714;53.056;8.690;2023-01-08T05:41:20;3.87;;;3.13;;
13291;SDS011;6714;53.056;8.690;2023-01-08T05:44:03;3.57;;;3.27;;
13291;SDS011;6714;53.056;8.690;2023-01-08T05:46:46;3.00;;;2.80;;
13291;SDS011;6714;53.056;8.690;2023-01-08T05:49:28;3.23;;;2.93;;
13291;SDS011;6714;53.056;8.690;2023-01-08T05:52:10;3.23;;;2.97;;
13291;SDS011;6714;53.056;8.690;2023-01-08T05:54:53;3.30;;;3.00;;
13291;SDS011;6714;53.056;8.690;2023-01-08T05:57:35;3.20;;;2.90;;
13291;SDS011;6714;53.056;8.690;2023-01-08T06:00:19;3.47;;;3.27;;
13291;SDS011;6714;53.056;8.690;2023-01-08T06:03:03;3.20;;;2.90;;
13291;SDS011;6714;53.056;8.690;2023-01-08T06:05:45;3.13;;;2.83;;
13291;SDS011;6714;53.056;8.690;2023-01-08T06:08:27;3.27;;;2.97;;
13291;SDS011;6714;53.056;8.690;2023-01-08T06:11:10;3.00;;;2.80;;
13291;SDS011;6714;53.056;8.690;2023-01-08T06:13:52;3.27;;;2.73;;
13291;SDS011;6714;53.056;8.690;2023-01-08T06:16:36;3.40;;;3.10;;
13291;SDS011;6714;53.056;8.690;2023-01-08T06:19:18;3.67;;;2.63;;
13291;SDS011;6714;53.056;8.690;2023-01-08T06:22:01;3.20;;;2.97;;
13291;SDS011;6714;53.056;8.690;2023-01-08T06:24:43;3.47;;;2.77;;
13291;SDS011;6714;53.056;8.690;2023-01-08T06:27:26;2.80;;;2.60;;
13291;SDS011;6714;53.056;8.690;2023-01-08T06:30:08;2.50;;;2.30;;
13291;SDS011;6714;53.056;8.690;2023-01-08T06:32:55;2.60;;;2.43;;
13291;SDS011;6714;53.056;8.690;2023-01-08T06:35:37;2.87;;;2.63;;
13291;SDS011;6714;53.056;8.690;2023-01-08T06:38:19;2.90;;;2.70;;
13291;SDS011;6714;53.056;8.690;2023-01-08T06:41:02;3.43;;;3.10;;
13291;SDS011;6714;53.056;8.690;2023-01-08T06:43:45;3.97;;;2.57;;
13291;SDS011;6714;53.056;8.690;2023-01-08T06:46:27;3.00;;;2.70;;
13291;SDS011;6714;53.056;8.690;2023-01-08T06:49:11;2.93;;;2.63;;
13291;SDS011;6714;53.056;8.690;2023-01-08T06:51:53;3.10;;;2.87;;
13291;SDS011;6714;53.056;8.690;2023-01-08T06:54:36;2.90;;;2.70;;
13291;SDS011;6714;53.056;8.690;2023-01-08T06:57:18;3.07;;;2.80;;
13291;SDS011;6714;53.056;8.690;2023-01-08T07:00:01;2.70;;;2.50;;
13291;SDS011;6714;53.056;8.690;2023-01-08T07:02:43;2.87;;;2.67;;
13291;SDS011;6714;53.056;8.690;2023-01-08T07:05:27;2.93;;;2.73;;
13291;SDS011;6714;53.056;8.690;2023-01-08T07:08:09;2.60;;;2.50;;
13291;SDS011;6714;53.056;8.690;2023-01-08T07:10:52;2.90;;;2.70;;
13291;SDS011;6714;53.056;8.690;2023-01-08T07:13:34;5.73;;;2.90;;
13291;SDS011;6714;53.056;8.690;2023-01-08T07:16:16;3.73;;;2.57;;
13291;SDS011;6714;53.056;8.690;2023-01-08T07:18:58;2.97;;;2.70;;
13291;SDS011;6714;53.056;8.690;2023-01-08T07:21:42;2.80;;;2.60;;
13291;SDS011;6714;53.056;8.690;2023-01-08T07:24:24;2.73;;;2.40;;
13291;SDS011;6714;53.056;8.690;2023-01-08T07:27:06;2.60;;;2.40;;
13291;SDS011;6714;53.056;8.690;2023-01-08T07:29:49;2.33;;;2.23;;
13291;SDS011;6714;53.056;8.690;2023-01-08T07:32:31;2.70;;;2.50;;
13291;SDS011;6714;53.056;8.690;2023-01-08T07:35:13;2.27;;;2.17;;
13291;SDS011;6714;53.056;8.690;2023-01-08T07:37:57;2.30;;;2.20;;
13291;SDS011;6714;53.056;8.690;2023-01-08T07:40:39;2.43;;;2.23;;
13291;SDS011;6714;53.056;8.690;2023-01-08T07:43:21;2.50;;;2.30;;
13291;SDS011;6714;53.056;8.690;2023-01-08T07:46:04;2.77;;;2.30;;
13291;SDS011;6714;53.056;8.690;2023-01-08T07:48:46;2.80;;;2.60;;
13291;SDS011;6714;53.056;8.690;2023-01-08T07:51:28;2.30;;;2.20;;
13291;SDS011;6714;53.056;8.690;2023-01-08T07:54:12;3.10;;;2.83;;
13291;SDS011;6714;53.056;8.690;2023-01-08T07:56:54;3.13;;;2.83;;
13291;SDS011;6714;53.056;8.690;2023-01-08T07:59:36;2.63;;;2.43;;
13291;SDS011;6714;53.056;8.690;2023-01-08T08:02:18;2.37;;;2.23;;
13291;SDS011;6714;53.056;8.690;2023-01-08T08:05:01;3.00;;;2.73;;
13291;SDS011;6714;53.056;8.690;2023-01-08T08:07:43;2.60;;;2.40;;
13291;SDS011;6714;53.056;8.690;2023-01-08T08:10:26;2.67;;;2.47;;
13291;SDS011;6714;53.056;8.690;2023-01-08T08:13:09;2.60;;;2.40;;
13291;SDS011;6714;53.056;8.690;2023-01-08T08:15:51;2.43;;;2.23;;
13291;SDS011;6714;53.056;8.690;2023-01-08T08:18:33;2.80;;;2.60;;
13291;SDS011;6714;53.056;8.690;2023-01-08T08:21:16;2.40;;;2.30;;
13291;SDS011;6714;53.056;8.690;2023-01-08T08:23:58;2.70;;;2.50;;
13291;SDS011;6714;53.056;8.690;2023-01-08T08:26:42;2.43;;;2.23;;
13291;SDS011;6714;53.056;8.690;2023-01-08T08:29:24;2.43;;;2.23;;
13291;SDS011;6714;53.056;8.690;2023-01-08T08:32:06;2.50;;;2.30;;
13291;SDS011;6714;53.056;8.690;2023-01-08T08:34:48;2.60;;;2.40;;
13291;SDS011;6714;53.056;8.690;2023-01-08T08:37:31;4.10;;;2.70;;
13291;SDS011;6714;53.056;8.690;2023-01-08T08:40:13;4.57;;;2.53;;
13291;SDS011;6714;53.056;8.690;2023-01-08T08:42:56;2.43;;;2.17;;
13291;SDS011;6714;53.056;8.690;2023-01-08T08:45:39;2.43;;;2.23;;
13291;SDS011;6714;53.056;8.690;2023-01-08T08:48:21;2.63;;;2.43;;
13291;SDS011;6714;53.056;8.690;2023-01-08T08:51:03;3.30;;;3.00;;
13291;SDS011;6714;53.056;8.690;2023-01-08T08:53:45;3.43;;;2.67;;
13291;SDS011;6714;53.056;8.690;2023-01-08T08:56:28;2.93;;;2.70;;
13291;SDS011;6714;53.056;8.690;2023-01-08T08:59:11;2.60;;;2.40;;
13291;SDS011;6714;53.056;8.690;2023-01-08T09:01:53;3.53;;;2.70;;
13291;SDS011;6714;53.056;8.690;2023-01-08T09:04:36;2.60;;;2.40;;
13291;SDS011;6714;53.056;8.690;2023-01-08T09:07:18;2.90;;;2.60;;
13291;SDS011;6714;53.056;8.690;2023-01-08T09:10:00;2.57;;;2.37;;
13291;SDS011;6714;53.056;8.690;2023-01-08T09:12:42;2.63;;;2.40;;
13291;SDS011;6714;53.056;8.690;2023-01-08T09:15:26;2.70;;;2.50;;
13291;SDS011;6714;53.056;8.690;2023-01-08T09:18:08;2.73;;;2.53;;
13291;SDS011;6714;53.056;8.690;2023-01-08T09:20:50;4.57;;;2.87;;
13291;SDS011;6714;53.056;8.690;2023-01-08T09:23:32;3.07;;;2.60;;
13291;SDS011;6714;53.056;8.690;2023-01-08T09:26:15;3.57;;;2.60;;
13291;SDS011;6714;53.056;8.690;2023-01-08T09:28:57;2.33;;;2.23;;
13291;SDS011;6714;53.056;8.690;2023-01-08T09:31:41;2.40;;;2.20;;
13291;SDS011;6714;53.056;8.690;2023-01-08T09:34:23;3.33;;;2.70;;
13291;SDS011;6714;53.056;8.690;2023-01-08T09:37:05;2.20;;;2.10;;
13291;SDS011;6714;53.056;8.690;2023-01-08T09:39:47;2.33;;;2.20;;
13291;SDS011;6714;53.056;8.690;2023-01-08T09:42:29;2.17;;;1.97;;
13291;SDS011;6714;53.056;8.690;2023-01-08T09:45:15;4.23;;;2.20;;
13291;SDS011;6714;53.056;8.690;2023-01-08T09:48:05;2.30;;;2.17;;
13291;SDS011;6714;53.056;8.690;2023-01-08T09:50:47;2.77;;;2.00;;
13291;SDS011;6714;53.056;8.690;2023-01-08T09:53:31;2.47;;;2.20;;
13291;SDS011;6714;53.056;8.690;2023-01-08T09:56:14;2.73;;;2.20;;
13291;SDS011;6714;53.056;8.690;2023-01-08T09:58:58;2.40;;;2.23;;
13291;SDS011;6714;53.056;8.690;2023-01-08T10:01:41;2.40;;;2.20;;
13291;SDS011;6714;53.056;8.690;2023-01-08T10:04:27;2.43;;;2.23;;
13291;SDS011;6714;53.056;8.690;2023-01-08T10:07:12;2.33;;;2.10;;
13291;SDS011;6714;53.056;8.690;2023-01-08T10:09:58;2.93;;;2.20;;
13291;SDS011;6714;53.056;8.690;2023-01-08T10:12:40;2.30;;;2.20;;
13291;SDS011;6714;53.056;8.690;2023-01-08T10:15:22;2.23;;;1.90;;
13291;SDS011;6714;53.056;8.690;2023-01-08T10:18:05;2.33;;;2.13;;
13291;SDS011;6714;53.056;8.690;2023-01-08T10:20:49;2.63;;;2.10;;
13291;SDS011;6714;53.056;8.690;2023-01-08T10:23:31;1.97;;;1.87;;
13291;SDS011;6714;53.056;8.690;2023-01-08T10:26:23;2.27;;;2.10;;
13291;SDS011;6714;53.056;8.690;2023-01-08T10:29:10;2.00;;;1.90;;
13291;SDS011;6714;53.056;8.690;2023-01-08T10:31:53;2.10;;;2.00;;
13291;SDS011;6714;53.056;8.690;2023-01-08T10:34:40;2.20;;;2.10;;
13291;SDS011;6714;53.056;8.690;2023-01-08T10:37:26;2.50;;;2.30;;
13291;SDS011;6714;53.056;8.690;2023-01-08T10:40:16;3.40;;;2.10;;
13291;SDS011;6714;53.056;8.690;2023-01-08T10:43:04;2.00;;;1.90;;
13291;SDS011;6714;53.056;8.690;2023-01-08T10:45:53;2.20;;;2.00;;
13291;SDS011;6714;53.056;8.690;2023-01-08T10:48:37;2.60;;;2.03;;
13291;SDS011;6714;53.056;8.690;2023-01-08T10:51:20;2.13;;;1.77;;
13291;SDS011;6714;53.056;8.690;2023-01-08T10:54:13;2.00;;;1.90;;
13291;SDS011;6714;53.056;8.690;2023-01-08T10:56:55;2.13;;;1.93;;
13291;SDS011;6714;53.056;8.690;2023-01-08T10:59:38;1.90;;;1.80;;
13291;SDS011;6714;53.056;8.690;2023-01-08T11:02:27;1.90;;;1.77;;
13291;SDS011;6714;53.056;8.690;2023-01-08T11:05:10;1.90;;;1.70;;
13291;SDS011;6714;53.056;8.690;2023-01-08T11:07:54;1.93;;;1.73;;
13291;SDS011;6714;53.056;8.690;2023-01-08T11:10:38;2.07;;;1.50;;
13291;SDS011;6714;53.056;8.690;2023-01-08T11:13:21;1.80;;;1.70;;
13291;SDS011;6714;53.056;8.690;2023-01-08T11:16:04;1.80;;;1.70;;
13291;SDS011;6714;53.056;8.690;2023-01-08T11:18:47;1.97;;;1.80;;
13291;SDS011;6714;53.056;8.690;2023-01-08T11:21:31;2.17;;;1.67;;
13291;SDS011;6714;53.056;8.690;2023-01-08T11:24:16;2.43;;;1.40;;
13291;SDS011;6714;53.056;8.690;2023-01-08T11:27:02;1.87;;;1.73;;
13291;SDS011;6714;53.056;8.690;2023-01-08T11:29:46;2.17;;;1.90;;
13291;SDS011;6714;53.056;8.690;2023-01-08T11:32:34;1.67;;;1.43;;
13291;SDS011;6714;53.056;8.690;2023-01-08T11:35:19;1.70;;;1.60;;
13291;SDS011;6714;53.056;8.690;2023-01-08T11:38:02;2.73;;;1.47;;
13291;SDS011;6714;53.056;8.690;2023-01-08T11:40:47;1.97;;;1.43;;
13291;SDS011;6714;53.056;8.690;2023-01-08T11:43:33;1.47;;;1.30;;
13291;SDS011;6714;53.056;8.690;2023-01-08T11:46:23;2.33;;;1.10;;
13291;SDS011;6714;53.056;8.690;2023-01-08T11:49:14;4.27;;;1.30;;
13291;SDS011;6714;53.056;8.690;2023-01-08T11:52:03;4.33;;;1.60;;
13291;SDS011;6714;53.056;8.690;2023-01-08T11:54:52;3.87;;;1.50;;
13291;SDS011;6714;53.056;8.690;2023-01-08T11:57:41;2.30;;;1.30;;
13291;SDS011;6714;53.056;8.690;2023-01-08T12:00:34;3.27;;;1.20;;
13291;SDS011;6714;53.056;8.690;2023-01-08T12:03:20;5.30;;;1.70;;
13291;SDS011;6714;53.056;8.690;2023-01-08T12:06:09;2.10;;;1.20;;
13291;SDS011;6714;53.056;8.690;2023-01-08T12:08:58;4.13;;;1.40;;
13291;SDS011;6714;53.056;8.690;2023-01-08T12:11:45;3.23;;;1.27;;
13291;SDS011;6714;53.056;8.690;2023-01-08T12:15:11;7.17;;;1.47;;
13291;SDS011;6714;53.056;8.690;2023-01-08T12:20:47;3.67;;;1.47;;
13291;SDS011;6714;53.056;8.690;2023-01-08T12:23:38;4.33;;;1.43;;
13291;SDS011;6714;53.056;8.690;2023-01-08T12:26:28;6.00;;;1.57;;
13291;SDS011;6714;53.056;8.690;2023-01-08T12:29:19;5.03;;;1.67;;
13291;SDS011;6714;53.056;8.690;2023-01-08T12:35:19;7.43;;;1.60;;
13291;SDS011;6714;53.056;8.690;2023-01-08T12:38:17;5.97;;;1.40;;
13291;SDS011;6714;53.056;8.690;2023-01-08T12:41:15;5.70;;;1.60;;
13291;SDS011;6714;53.056;8.690;2023-01-08T12:44:04;4.77;;;1.67;;
13291;SDS011;6714;53.056;8.690;2023-01-08T12:46:49;6.27;;;1.53;;
13291;SDS011;6714;53.056;8.690;2023-01-08T12:49:39;6.87;;;1.47;;
13291;SDS011;6714;53.056;8.690;2023-01-08T12:52:34;6.77;;;1.80;;
13291;SDS011;6714;53.056;8.690;2023-01-08T12:55:25;3.17;;;1.30;;
13291;SDS011;6714;53.056;8.690;2023-01-08T12:58:12;6.43;;;1.60;;
13291;SDS011;6714;53.056;8.690;2023-01-08T13:01:04;6.00;;;1.70;;
13291;SDS011;6714;53.056;8.690;2023-01-08T13:03:56;6.67;;;1.70;;
13291;SDS011;6714;53.056;8.690;2023-01-08T13:06:54;4.43;;;1.67;;
13291;SDS011;6714;53.056;8.690;2023-01-08T13:09:42;13.90;;;2.40;;
13291;SDS011;6714;53.056;8.690;2023-01-08T13:12:48;4.47;;;1.70;;
13291;SDS011;6714;53.056;8.690;2023-01-08T13:15:39;6.13;;;1.67;;
13291;SDS011;6714;53.056;8.690;2023-01-08T13:18:25;13.23;;;2.00;;
13291;SDS011;6714;53.056;8.690;2023-01-08T13:21:08;6.40;;;1.83;;
13291;SDS011;6714;53.056;8.690;2023-01-08T13:23:57;5.07;;;1.63;;
13291;SDS011;6714;53.056;8.690;2023-01-08T13:26:42;6.53;;;1.90;;
13291;SDS011;6714;53.056;8.690;2023-01-08T13:32:56;7.07;;;1.60;;
13291;SDS011;6714;53.056;8.690;2023-01-08T13:42:45;6.87;;;2.20;;
13291;SDS011;6714;53.056;8.690;2023-01-08T13:49:22;6.67;;;1.80;;
13291;SDS011;6714;53.056;8.690;2023-01-08T13:55:23;4.83;;;1.80;;
13291;SDS011;6714;53.056;8.690;2023-01-08T14:15:02;9.77;;;2.23;;
13291;SDS011;6714;53.056;8.690;2023-01-08T14:17:49;6.93;;;2.00;;
13291;SDS011;6714;53.056;8.690;2023-01-08T14:20:34;5.00;;;2.10;;
13291;SDS011;6714;53.056;8.690;2023-01-08T14:23:18;8.07;;;1.97;;
13291;SDS011;6714;53.056;8.690;2023-01-08T14:26:02;6.40;;;2.17;;
13291;SDS011;6714;53.056;8.690;2023-01-08T14:28:49;11.63;;;2.40;;
13291;SDS011;6714;53.056;8.690;2023-01-08T14:31:33;6.60;;;2.20;;
13291;SDS011;6714;53.056;8.690;2023-01-08T14:34:15;7.77;;;1.83;;
13291;SDS011;6714;53.056;8.690;2023-01-08T14:36:58;6.20;;;2.10;;
13291;SDS011;6714;53.056;8.690;2023-01-08T14:39:41;6.13;;;2.10;;
13291;SDS011;6714;53.056;8.690;2023-01-08T14:42:25;8.53;;;2.43;;
13291;SDS011;6714;53.056;8.690;2023-01-08T14:45:23;3.87;;;1.63;;
13291;SDS011;6714;53.056;8.690;2023-01-08T14:48:09;7.63;;;2.23;;
13291;SDS011;6714;53.056;8.690;2023-01-08T14:50:58;4.80;;;2.00;;
13291;SDS011;6714;53.056;8.690;2023-01-08T14:53:42;8.43;;;2.10;;
13291;SDS011;6714;53.056;8.690;2023-01-08T14:56:27;6.43;;;2.20;;
13291;SDS011;6714;53.056;8.690;2023-01-08T14:59:09;4.67;;;2.07;;
13291;SDS011;6714;53.056;8.690;2023-01-08T15:01:53;8.63;;;2.40;;
13291;SDS011;6714;53.056;8.690;2023-01-08T15:04:37;7.33;;;2.60;;
13291;SDS011;6714;53.056;8.690;2023-01-08T15:07:19;6.27;;;2.13;;
13291;SDS011;6714;53.056;8.690;2023-01-08T15:13:00;6.30;;;2.00;;
13291;SDS011;6714;53.056;8.690;2023-01-08T15:15:48;7.03;;;1.80;;
13291;SDS011;6714;53.056;8.690;2023-01-08T15:18:33;4.77;;;2.00;;
13291;SDS011;6714;53.056;8.690;2023-01-08T15:21:17;5.20;;;2.00;;
13291;SDS011;6714;53.056;8.690;2023-01-08T15:24:00;7.50;;;2.10;;
13291;SDS011;6714;53.056;8.690;2023-01-08T15:26:43;5.17;;;1.80;;
13291;SDS011;6714;53.056;8.690;2023-01-08T15:29:26;8.00;;;1.97;;
13291;SDS011;6714;53.056;8.690;2023-01-08T15:32:17;5.30;;;1.97;;
13291;SDS011;6714;53.056;8.690;2023-01-08T15:35:01;4.63;;;1.93;;
13291;SDS011;6714;53.056;8.690;2023-01-08T15:37:45;4.50;;;1.67;;
13291;SDS011;6714;53.056;8.690;2023-01-08T15:40:27;6.37;;;2.23;;
13291;SDS011;6714;53.056;8.690;2023-01-08T15:43:10;5.57;;;1.93;;
13291;SDS011;6714;53.056;8.690;2023-01-08T15:45:52;3.23;;;1.70;;
13291;SDS011;6714;53.056;8.690;2023-01-08T15:48:34;8.37;;;2.67;;
13291;SDS011;6714;53.056;8.690;2023-01-08T15:51:17;6.83;;;2.10;;
13291;SDS011;6714;53.056;8.690;2023-01-08T15:54:00;2.77;;;1.80;;
13291;SDS011;6714;53.056;8.690;2023-01-08T15:56:43;2.97;;;1.60;;
13291;SDS011;6714;53.056;8.690;2023-01-08T15:59:25;3.33;;;1.63;;
13291;SDS011;6714;53.056;8.690;2023-01-08T16:02:08;3.90;;;1.60;;
13291;SDS011;6714;53.056;8.690;2023-01-08T16:04:50;4.47;;;1.77;;
13291;SDS011;6714;53.056;8.690;2023-01-08T16:07:33;4.80;;;1.80;;
13291;SDS011;6714;53.056;8.690;2023-01-08T16:10:16;3.97;;;1.80;;
13291;SDS011;6714;53.056;8.690;2023-01-08T16:12:59;4.23;;;1.70;;
13291;SDS011;6714;53.056;8.690;2023-01-08T16:15:41;3.97;;;1.60;;
13291;SDS011;6714;53.056;8.690;2023-01-08T16:18:23;4.80;;;1.33;;
13291;SDS011;6714;53.056;8.690;2023-01-08T16:21:06;3.67;;;1.40;;
13291;SDS011;6714;53.056;8.690;2023-01-08T16:23:48;1.63;;;1.10;;
13291;SDS011;6714;53.056;8.690;2023-01-08T16:26:32;3.33;;;1.27;;
13291;SDS011;6714;53.056;8.690;2023-01-08T16:29:14;3.03;;;1.53;;
13291;SDS011;6714;53.056;8.690;2023-01-08T16:31:56;1.20;;;1.10;;
13291;SDS011;6714;53.056;8.690;2023-01-08T16:34:39;2.50;;;1.23;;
13291;SDS011;6714;53.056;8.690;2023-01-08T16:37:21;3.40;;;1.23;;
13291;SDS011;6714;53.056;8.690;2023-01-08T16:40:03;3.30;;;1.20;;
13291;SDS011;6714;53.056;8.690;2023-01-08T16:42:47;1.67;;;1.13;;
13291;SDS011;6714;53.056;8.690;2023-01-08T16:45:29;1.47;;;1.00;;
13291;SDS011;6714;53.056;8.690;2023-01-08T16:48:12;1.43;;;1.10;;
13291;SDS011;6714;53.056;8.690;2023-01-08T16:50:54;2.10;;;1.10;;
13291;SDS011;6714;53.056;8.690;2023-01-08T16:53:36;1.57;;;1.20;;
13291;SDS011;6714;53.056;8.690;2023-01-08T16:56:18;1.90;;;1.10;;
13291;SDS011;6714;53.056;8.690;2023-01-08T16:59:02;1.67;;;1.23;;
13291;SDS011;6714;53.056;8.690;2023-01-08T17:01:44;0.90;;;0.90;;
13291;SDS011;6714;53.056;8.690;2023-01-08T17:04:27;2.07;;;1.10;;
13291;SDS011;6714;53.056;8.690;2023-01-08T17:07:11;1.60;;;1.10;;
13291;SDS011;6714;53.056;8.690;2023-01-08T17:09:53;1.03;;;1.00;;
13291;SDS011;6714;53.056;8.690;2023-01-08T17:12:36;1.87;;;1.07;;
13291;SDS011;6714;53.056;8.690;2023-01-08T17:15:19;1.37;;;1.23;;
13291;SDS011;6714;53.056;8.690;2023-01-08T17:18:02;0.80;;;0.80;;
13291;SDS011;6714;53.056;8.690;2023-01-08T17:20:48;1.00;;;0.90;;
13291;SDS011;6714;53.056;8.690;2023-01-08T17:23:30;1.60;;;0.90;;
13291;SDS011;6714;53.056;8.690;2023-01-08T17:26:13;1.43;;;0.97;;